Time;durP1;ratioP1;P1;durP2;ratioP2;P2;SDS_P1;SDS_P2;PMS_P1;PMS_P2;Temp;Humidity;BMP_temperature;BMP_pressure;BME280_temperature;BME280_humidity;BME280_pressure;Samples;Min_cycle;Max_cycle;Signal;HPM_P1;HPM_P2
2022/08/29 00:00:26;;;;;;;8.02;5.07;;;;;;;18.07;100.00;91045.38;5052859;28;20032;-63
2022/08/29 00:02:55;;;;;;;7.60;4.82;;;;;;;18.09;100.00;91051.19;5052699;28;20449;-63
2022/08/29 00:05:24;;;;;;;9.30;4.60;;;;;;;18.15;100.00;91049.03;5052584;28;20056;-63
2022/08/29 00:07:50;;;;;;;11.65;5.30;;;;;;;18.19;100.00;91050.66;5052742;28;20033;-63
2022/08/29 00:10:16;;;;;;;5.03;4.40;;;;;;;18.21;100.00;91048.38;5052647;28;20102;-63
2022/08/29 00:12:42;;;;;;;5.93;4.00;;;;;;;18.13;100.00;91054.75;5052576;28;20021;-63
2022/08/29 00:15:10;;;;;;;4.93;4.22;;;;;;;18.05;100.00;91047.66;5052473;28;20409;-63
2022/08/29 00:17:35;;;;;;;7.43;5.30;;;;;;;18.00;100.00;91042.56;5052460;28;20536;-63
2022/08/29 00:20:02;;;;;;;9.00;4.93;;;;;;;17.93;100.00;91034.28;5052509;28;20033;-63
2022/08/29 00:22:27;;;;;;;4.82;4.22;;;;;;;17.94;100.00;91047.41;5052313;28;20028;-63
2022/08/29 00:24:53;;;;;;;5.80;3.95;;;;;;;17.92;100.00;91038.91;5052618;28;20025;-63
2022/08/29 00:27:18;;;;;;;5.40;4.13;;;;;;;17.90;100.00;91041.16;5052414;28;20546;-62
2022/08/29 00:29:44;;;;;;;7.95;4.65;;;;;;;17.88;100.00;91040.75;5052281;28;20060;-63
2022/08/29 00:32:09;;;;;;;5.07;4.00;;;;;;;17.86;100.00;91031.47;5051995;28;20029;-62
2022/08/29 00:34:35;;;;;;;4.63;3.95;;;;;;;17.81;100.00;91037.88;5052273;28;20060;-63
2022/08/29 00:37:00;;;;;;;7.20;5.22;;;;;;;17.77;100.00;91028.94;5052119;28;20489;-63
2022/08/29 00:39:26;;;;;;;5.88;4.50;;;;;;;17.66;100.00;91025.97;5052340;28;20444;-62
2022/08/29 00:41:51;;;;;;;6.78;4.85;;;;;;;17.60;100.00;91023.91;5051891;28;20419;-63
2022/08/29 00:44:17;;;;;;;6.45;4.50;;;;;;;17.57;100.00;91033.44;5052153;28;20033;-63
2022/08/29 00:46:48;;;;;;;6.72;4.90;;;;;;;17.53;100.00;91029.91;5051980;28;20032;-63
2022/08/29 00:49:23;;;;;;;7.35;5.13;;;;;;;17.57;100.00;91033.44;5051398;28;20170;-62
2022/08/29 00:51:49;;;;;;;5.70;4.30;;;;;;;17.57;100.00;91036.13;5051788;28;20035;-62
2022/08/29 00:54:15;;;;;;;6.28;4.95;;;;;;;17.55;100.00;91027.63;5051790;28;20028;-63
2022/08/29 00:56:43;;;;;;;5.25;4.63;;;;;;;17.57;100.00;91028.06;5051842;28;20060;-62
2022/08/29 00:59:21;;;;;;;6.22;4.60;;;;;;;17.57;100.00;91025.38;5051809;28;20029;-63
2022/08/29 01:01:47;;;;;;;6.78;4.68;;;;;;;17.59;100.00;91035.78;5051847;28;20028;-62
2022/08/29 01:04:13;;;;;;;6.25;5.10;;;;;;;17.58;100.00;91029.63;5049940;28;20029;-62
2022/08/29 01:06:40;;;;;;;7.07;4.72;;;;;;;17.59;100.00;91028.50;5051150;28;20045;-63
2022/08/29 01:09:07;;;;;;;9.07;5.07;;;;;;;17.58;100.00;91024.25;5051623;28;20525;-63
2022/08/29 01:14:19;;;;;;;6.30;4.45;;;;;;;17.71;100.00;91024.19;5051815;28;20068;-63
2022/08/29 01:16:47;;;;;;;5.65;4.95;;;;;;;17.70;100.00;91020.72;5051460;28;20506;-62
2022/08/29 01:19:44;;;;;;;11.98;5.38;;;;;;;17.67;100.00;91021.38;5051639;28;20119;-63
2022/08/29 01:22:39;;;;;;;6.60;4.88;;;;;;;17.64;100.00;91027.44;5030122;28;20136;-63
2022/08/29 01:25:12;;;;;;;7.43;4.07;;;;;;;17.51;100.00;91018.69;5029275;28;20040;-63
2022/08/29 01:27:40;;;;;;;6.43;4.30;;;;;;;17.47;100.00;91015.13;5051308;28;20049;-63
2022/08/29 01:30:07;;;;;;;6.65;4.13;;;;;;;17.45;100.00;91013.94;5051326;28;20044;-63
2022/08/29 01:32:33;;;;;;;6.57;4.30;;;;;;;17.49;100.00;91012.09;5048107;28;20029;-62
2022/08/29 01:34:59;;;;;;;6.28;4.97;;;;;;;17.61;100.00;91012.78;5051475;28;20095;-62
2022/08/29 01:37:30;;;;;;;4.65;3.60;;;;;;;17.71;100.00;91016.13;5051223;28;20033;-62
2022/08/29 01:39:55;;;;;;;6.45;4.43;;;;;;;17.70;100.00;91012.66;5051358;28;20460;-62
2022/08/29 01:42:23;;;;;;;6.43;4.50;;;;;;;17.68;100.00;91020.28;5050968;28;20037;-62
2022/08/29 01:44:55;;;;;;;4.97;3.58;;;;;;;17.68;100.00;91012.22;5051109;28;20043;-62
2022/08/29 01:47:23;;;;;;;6.03;4.63;;;;;;;17.58;100.00;91016.19;5051107;28;20053;-62
2022/08/29 01:49:49;;;;;;;5.22;4.10;;;;;;;17.60;100.00;91015.81;5051085;28;20107;-62
2022/08/29 01:52:15;;;;;;;4.65;4.15;;;;;;;17.50;100.00;91017.13;5051226;28;20033;-63
2022/08/29 01:54:42;;;;;;;4.75;4.07;;;;;;;17.46;100.00;91010.88;5050940;28;20053;-63
2022/08/29 01:57:08;;;;;;;7.32;4.50;;;;;;;17.41;100.00;91019.22;5051072;28;20037;-63
2022/08/29 01:59:34;;;;;;;6.10;4.63;;;;;;;17.24;100.00;91004.22;5050924;28;20049;-63
2022/08/29 02:02:07;;;;;;;7.30;4.78;;;;;;;17.27;100.00;91022.34;5054609;28;20070;-63
2022/08/29 02:04:33;;;;;;;6.38;4.45;;;;;;;17.18;100.00;91020.94;5186552;23;20016;-63
2022/08/29 02:06:59;;;;;;;6.32;4.68;;;;;;;17.12;100.00;91022.34;5062936;28;20044;-65
2022/08/29 02:09:26;;;;;;;6.70;5.22;;;;;;;17.13;100.00;91027.38;5075025;28;20033;-63
2022/08/29 02:11:53;;;;;;;9.05;4.95;;;;;;;17.02;100.00;91021.72;5074956;28;20029;-63
2022/08/29 02:14:20;;;;;;;9.85;4.22;;;;;;;16.97;100.00;91027.34;5074734;28;20157;-63
2022/08/29 02:16:46;;;;;;;8.23;4.72;;;;;;;16.88;100.00;91024.03;5074876;28;20603;-63
2022/08/29 02:19:12;;;;;;;6.43;4.88;;;;;;;16.88;100.00;91023.25;5074806;28;20025;-63
2022/08/29 02:21:38;;;;;;;7.18;4.70;;;;;;;16.80;100.00;91011.53;5074573;28;20404;-63
2022/08/29 02:24:04;;;;;;;6.28;4.72;;;;;;;16.66;100.00;91016.50;5074657;28;20028;-63
2022/08/29 02:26:30;;;;;;;5.72;4.47;;;;;;;16.61;100.00;91019.44;5074531;28;20032;-64
2022/08/29 02:28:56;;;;;;;7.65;4.55;;;;;;;16.54;100.00;91024.59;5074592;28;20036;-63
2022/08/29 02:31:23;;;;;;;6.15;4.65;;;;;;;16.52;100.00;91022.25;5074550;28;20032;-63
2022/08/29 02:33:50;;;;;;;5.47;4.20;;;;;;;16.48;100.00;91024.84;5074549;28;20059;-63
2022/08/29 02:36:16;;;;;;;9.00;5.00;;;;;;;16.40;100.00;91023.09;5074286;28;20039;-63
2022/08/29 02:38:42;;;;;;;6.53;4.80;;;;;;;16.40;100.00;91022.31;5074477;28;20070;-63
2022/08/29 02:41:08;;;;;;;6.38;4.75;;;;;;;16.45;100.00;91024.75;5074242;28;20032;-63
2022/08/29 02:43:34;;;;;;;7.72;4.70;;;;;;;16.57;100.00;91027.41;5074362;28;20027;-63
2022/08/29 02:46:00;;;;;;;6.90;4.53;;;;;;;16.64;100.00;91019.53;5074215;28;20028;-63
2022/08/29 02:48:26;;;;;;;6.05;4.38;;;;;;;16.68;100.00;91016.97;5074251;28;20086;-63
2022/08/29 02:50:54;;;;;;;7.10;5.25;;;;;;;16.61;100.00;91016.75;5074244;28;20455;-63
2022/08/29 02:53:23;;;;;;;7.95;4.75;;;;;;;16.64;100.00;91024.13;5074405;28;20032;-62
2022/08/29 02:55:50;;;;;;;6.60;3.97;;;;;;;16.69;100.00;91021.22;5073995;28;20115;-62
2022/08/29 02:58:16;;;;;;;5.53;3.95;;;;;;;16.71;100.00;91014.38;5073908;28;20047;-63
2022/08/29 03:00:42;;;;;;;7.70;4.50;;;;;;;16.69;100.00;91021.22;5074080;28;20033;-63
2022/08/29 03:03:08;;;;;;;6.30;4.70;;;;;;;16.67;100.00;91026.16;5073897;28;20020;-63
2022/08/29 03:05:34;;;;;;;5.68;4.35;;;;;;;16.65;100.00;91034.53;5073822;28;20041;-63
2022/08/29 03:08:01;;;;;;;6.13;4.25;;;;;;;16.67;100.00;91042.28;5073925;28;20085;-63
2022/08/29 03:10:27;;;;;;;5.90;4.43;;;;;;;16.65;100.00;91025.69;5055781;28;20082;-62
2022/08/29 03:12:54;;;;;;;7.78;4.57;;;;;;;16.69;100.00;91030.06;5073181;28;20025;-62
2022/08/29 03:15:20;;;;;;;4.47;3.42;;;;;;;16.68;100.00;91033.09;5073727;28;20052;-63
2022/08/29 03:17:46;;;;;;;5.82;4.47;;;;;;;16.59;100.00;91043.19;5073719;28;20055;-63
2022/08/29 03:20:16;;;;;;;5.43;4.45;;;;;;;16.46;100.00;91050.50;5073671;28;20090;-63
2022/08/29 03:22:42;;;;;;;5.88;4.70;;;;;;;16.39;100.00;91053.75;5073512;28;20028;-63
2022/08/29 03:25:09;;;;;;;4.82;4.22;;;;;;;16.29;100.00;91046.19;5073467;28;20029;-62
2022/08/29 03:27:34;;;;;;;7.50;4.57;;;;;;;16.24;100.00;91046.41;5073765;28;20032;-63
2022/08/29 03:30:00;;;;;;;6.95;5.35;;;;;;;16.22;100.00;91056.69;5073530;28;20549;-63
2022/08/29 03:32:27;;;;;;;6.95;4.95;;;;;;;16.14;100.00;91060.31;5073638;28;20066;-63
2022/08/29 03:34:53;;;;;;;9.00;6.13;;;;;;;16.01;100.00;91062.22;5073354;28;20083;-63
2022/08/29 03:37:19;;;;;;;8.38;6.32;;;;;;;15.95;100.00;91057.44;5073400;28;20474;-63
2022/08/29 03:39:45;;;;;;;8.10;5.88;;;;;;;16.01;100.00;91061.44;5073236;28;20067;-62
2022/08/29 03:42:10;;;;;;;7.72;6.10;;;;;;;15.95;100.00;91062.81;5073209;28;20108;-63
2022/08/29 03:44:38;;;;;;;8.68;6.57;;;;;;;15.97;100.00;91071.31;5073105;28;20413;-63
2022/08/29 03:47:04;;;;;;;5.85;4.60;;;;;;;16.04;100.00;91058.09;5072969;28;20043;-63
2022/08/29 03:49:30;;;;;;;6.82;4.90;;;;;;;16.08;100.00;91067.00;5073036;28;20028;-63
2022/08/29 03:51:56;;;;;;;5.95;4.47;;;;;;;16.12;100.00;91070.59;5073042;28;20040;-63
2022/08/29 03:54:21;;;;;;;8.68;4.65;;;;;;;16.10;100.00;91070.16;5072957;28;20506;-63
2022/08/29 03:56:47;;;;;;;5.38;4.40;;;;;;;16.09;100.00;91071.25;5073254;28;20412;-63
2022/08/29 03:59:13;;;;;;;6.40;4.72;;;;;;;16.01;100.00;91067.59;5072968;28;20020;-63
2022/08/29 04:01:39;;;;;;;5.45;4.65;;;;;;;16.00;100.00;91073.31;5072607;28;20460;-63
2022/08/29 04:04:04;;;;;;;7.85;4.95;;;;;;;16.03;100.00;91070.72;5073054;28;20219;-63
2022/08/29 04:06:31;;;;;;;6.97;4.75;;;;;;;16.13;100.00;91078.31;5072607;28;20512;-63
2022/08/29 04:08:57;;;;;;;7.32;4.63;;;;;;;16.21;100.00;91076.63;5072694;28;20060;-63
2022/08/29 04:11:24;;;;;;;8.38;4.47;;;;;;;16.37;100.00;91069.41;5072967;28;20153;-63
2022/08/29 04:13:50;;;;;;;6.88;5.10;;;;;;;16.43;100.00;91068.06;5072649;28;20446;-63
2022/08/29 04:16:21;;;;;;;7.25;4.30;;;;;;;16.50;100.00;91069.38;5065829;28;20060;-63
2022/08/29 04:18:47;;;;;;;9.02;5.60;;;;;;;16.55;100.00;91064.53;5063691;28;20037;-63
2022/08/29 04:21:14;;;;;;;7.40;4.65;;;;;;;16.75;100.00;91079.75;5051920;28;20052;-63
2022/08/29 04:23:40;;;;;;;5.60;4.95;;;;;;;16.92;100.00;91067.13;5051210;28;20021;-63
2022/08/29 04:26:13;;;;;;;7.82;5.32;;;;;;;16.97;100.00;91083.00;5052135;28;20064;-63
2022/08/29 04:28:39;;;;;;;7.82;5.65;;;;;;;17.07;100.00;91085.19;5052077;28;20067;-64
2022/08/29 04:31:10;;;;;;;11.75;5.38;;;;;;;17.09;100.00;91082.16;5052287;28;20060;-64
2022/08/29 04:33:35;;;;;;;5.80;5.05;;;;;;;17.27;100.00;91084.19;5052452;28;20025;-63
2022/08/29 04:36:04;;;;;;;7.22;5.50;;;;;;;17.49;100.00;91087.41;5052300;28;20474;-63
2022/08/29 04:38:30;;;;;;;11.63;5.88;;;;;;;17.65;100.00;91090.88;5052111;28;20406;-63
2022/08/29 04:40:56;;;;;;;8.77;5.70;;;;;;;17.90;100.00;91092.31;5052100;28;20040;-63
2022/08/29 04:43:21;;;;;;;7.47;5.78;;;;;;;18.03;100.00;91087.59;5052080;28;20025;-63
2022/08/29 04:45:56;;;;;;;9.77;5.93;;;;;;;18.37;100.00;91098.75;5051980;28;20036;-64
2022/08/29 04:48:21;;;;;;;7.38;4.97;;;;;;;18.74;100.00;91099.16;5051975;28;20029;-63
2022/08/29 04:50:57;;;;;;;7.13;5.03;;;;;;;20.20;100.00;91094.50;5051962;28;20024;-63
2022/08/29 04:53:24;;;;;;;6.03;4.63;;;;;;;21.85;81.97;91094.63;5051952;28;20100;-63
2022/08/29 04:56:06;;;;;;;5.47;4.25;;;;;;;22.63;72.84;91089.81;5051768;28;20532;-64
2022/08/29 04:58:33;;;;;;;5.10;4.15;;;;;;;22.25;72.44;91091.91;5051756;28;20028;-64
2022/08/29 05:00:58;;;;;;;5.90;4.78;;;;;;;21.67;74.38;91086.31;5052043;28;20040;-64
2022/08/29 05:03:24;;;;;;;6.38;3.80;;;;;;;21.38;76.41;91093.38;5051700;28;20398;-63
2022/08/29 05:05:58;;;;;;;5.78;4.50;;;;;;;20.99;79.57;91104.50;5051337;28;20080;-63
2022/08/29 05:08:24;;;;;;;6.07;4.25;;;;;;;20.59;85.35;91105.91;5051538;28;20426;-63
2022/08/29 05:10:50;;;;;;;10.27;4.65;;;;;;;20.56;86.81;91095.03;5051801;28;20052;-64
2022/08/29 05:13:16;;;;;;;6.20;4.70;;;;;;;20.46;86.48;91107.25;5051568;28;20041;-64
2022/08/29 05:15:41;;;;;;;5.95;4.78;;;;;;;20.39;86.40;91107.13;5051448;28;20029;-64
2022/08/29 05:18:07;;;;;;;6.25;4.25;;;;;;;20.48;85.62;91107.66;5051463;28;20536;-64
2022/08/29 05:20:32;;;;;;;8.02;4.63;;;;;;;20.97;82.21;91106.78;5051418;28;20033;-64
2022/08/29 05:22:58;;;;;;;12.55;3.88;;;;;;;21.30;76.65;91108.75;5051312;28;20037;-64
2022/08/29 05:25:24;;;;;;;9.57;6.57;;;;;;;21.26;77.15;91109.84;5051260;28;20494;-64
2022/08/29 05:27:50;;;;;;;6.53;4.65;;;;;;;21.59;76.07;91103.63;5051543;28;20041;-64
2022/08/29 05:30:16;;;;;;;5.97;4.57;;;;;;;22.00;73.69;91104.41;5051271;28;20045;-64
2022/08/29 05:32:42;;;;;;;6.80;4.97;;;;;;;22.79;69.93;91101.16;5051268;28;20037;-64
2022/08/29 05:35:09;;;;;;;7.57;5.50;;;;;;;22.97;67.17;91096.63;5050936;28;20091;-64
2022/08/29 05:37:35;;;;;;;6.30;4.15;;;;;;;22.75;67.98;91096.88;5051236;28;20134;-64
2022/08/29 05:40:01;;;;;;;10.27;5.53;;;;;;;22.41;68.20;91097.81;5051213;28;20059;-64
2022/08/29 05:42:27;;;;;;;5.78;4.38;;;;;;;22.42;67.99;91093.97;5051283;28;20380;-64
2022/08/29 05:44:52;;;;;;;6.75;4.40;;;;;;;22.24;69.19;91103.09;5051257;28;20502;-64
2022/08/29 05:47:19;;;;;;;6.80;4.57;;;;;;;22.61;68.44;91102.97;5051071;28;20566;-64
2022/08/29 05:49:46;;;;;;;6.03;4.32;;;;;;;22.61;68.21;91108.41;5051080;28;20041;-64
2022/08/29 05:52:14;;;;;;;5.38;4.40;;;;;;;22.37;69.05;91096.22;5051053;28;20045;-64
2022/08/29 05:54:41;;;;;;;6.20;4.50;;;;;;;22.54;69.61;91100.19;5051102;28;20037;-64
2022/08/29 05:57:09;;;;;;;5.60;4.75;;;;;;;24.84;62.60;91096.56;5051235;28;20559;-64
2022/08/29 05:59:35;;;;;;;4.47;4.07;;;;;;;27.08;54.44;91095.28;5050909;28;20045;-64
2022/08/29 06:02:00;;;;;;;5.28;4.47;;;;;;;27.84;52.17;91100.66;5050975;28;20045;-64
2022/08/29 06:04:26;;;;;;;6.13;4.20;;;;;;;29.52;48.26;91100.31;5050866;28;20040;-64
2022/08/29 06:06:51;;;;;;;6.50;4.15;;;;;;;31.58;44.47;91099.50;5050748;28;20049;-63
2022/08/29 06:09:17;;;;;;;9.60;4.07;;;;;;;33.08;40.58;91104.06;5050956;28;20039;-68
2022/08/29 06:11:46;;;;;;;6.35;4.20;;;;;;;33.34;40.24;91107.56;5050953;28;20033;-63
2022/08/29 06:14:13;;;;;;;3.70;3.25;;;;;;;32.79;40.25;91101.44;5050748;28;20041;-64
2022/08/29 06:16:38;;;;;;;4.70;3.92;;;;;;;33.80;38.59;91107.94;5050859;28;20076;-65
2022/08/29 06:19:04;;;;;;;6.93;4.07;;;;;;;34.02;37.41;91105.97;5051108;28;20083;-66
2022/08/29 06:21:30;;;;;;;4.80;4.07;;;;;;;34.41;37.23;91109.31;5050632;28;20032;-66
2022/08/29 06:23:56;;;;;;;6.90;4.78;;;;;;;35.42;36.40;91118.72;5050684;28;20068;-65
2022/08/29 06:26:22;;;;;;;4.65;3.63;;;;;;;36.03;34.81;91116.91;5050786;28;20064;-64
2022/08/29 06:28:48;;;;;;;4.53;3.63;;;;;;;35.24;35.56;91119.44;5050783;28;20510;-64
2022/08/29 06:31:20;;;;;;;5.63;4.25;;;;;;;36.56;34.09;91120.06;5050884;28;20036;-64
2022/08/29 06:33:46;;;;;;;6.73;4.37;;;;;;;35.48;34.91;91116.09;5050956;28;20055;-64
2022/08/29 06:36:12;;;;;;;100.53;62.95;;;;;;;36.59;35.06;91124.66;5050418;28;20115;-64
2022/08/29 06:38:38;;;;;;;12.48;9.65;;;;;;;38.00;33.22;91121.00;5050587;28;20125;-64
2022/08/29 06:41:06;;;;;;;12.00;8.82;;;;;;;38.47;32.76;91127.69;5050797;28;20037;-64
2022/08/29 06:43:32;;;;;;;4.57;4.05;;;;;;;39.08;32.11;91129.97;5050531;28;20064;-64
2022/08/29 06:45:57;;;;;;;5.38;4.47;;;;;;;39.63;30.93;91132.84;5050476;28;20113;-64
2022/08/29 06:48:22;;;;;;;8.93;5.10;;;;;;;40.43;30.50;91124.97;5053219;28;20041;-64
2022/08/29 06:50:48;;;;;;;8.23;5.57;;;;;;;38.83;31.77;91131.38;5054241;28;20512;-64
2022/08/29 06:53:13;;;;;;;149.27;99.03;;;;;;;37.13;34.11;91131.28;5054164;28;20036;-64
2022/08/29 06:55:39;;;;;;;10.05;7.10;;;;;;;35.80;35.44;91121.03;5054056;28;20128;-64
2022/08/29 06:58:05;;;;;;;7.93;5.15;;;;;;;34.15;37.94;91131.53;5054077;28;20052;-64
2022/08/29 07:00:30;;;;;;;5.88;4.75;;;;;;;32.30;40.75;91129.31;5054261;28;20109;-64
2022/08/29 07:02:56;;;;;;;10.68;5.22;;;;;;;32.02;41.70;91128.13;5053891;28;20037;-64
2022/08/29 07:05:23;;;;;;;5.25;4.57;;;;;;;32.26;41.35;91131.38;5053658;28;20052;-64
2022/08/29 07:07:50;;;;;;;6.70;4.20;;;;;;;32.91;40.91;91128.25;5054151;28;20065;-64
2022/08/29 07:10:15;;;;;;;11.15;5.85;;;;;;;33.85;38.92;91135.00;5054071;28;20044;-64
2022/08/29 07:12:41;;;;;;;5.10;4.55;;;;;;;34.40;38.56;91136.16;5054087;28;20120;-64
2022/08/29 07:15:07;;;;;;;7.95;5.57;;;;;;;35.24;37.94;91141.56;5053697;28;20080;-64
2022/08/29 07:17:33;;;;;;;9.18;5.95;;;;;;;36.21;36.25;91136.28;5053719;28;20060;-64
2022/08/29 07:19:58;;;;;;;9.57;5.65;;;;;;;37.34;35.44;91140.56;5053657;28;20063;-64
2022/08/29 07:22:25;;;;;;;10.88;6.45;;;;;;;37.33;34.08;91141.06;5053586;28;20033;-64
2022/08/29 07:24:51;;;;;;;5.78;5.18;;;;;;;36.66;34.87;91139.44;5053710;28;20086;-64
2022/08/29 07:27:17;;;;;;;7.43;5.68;;;;;;;36.24;35.02;91142.88;5053510;28;20116;-64
2022/08/29 07:29:42;;;;;;;8.23;5.45;;;;;;;37.43;33.94;91137.00;5053483;28;20174;-64
2022/08/29 07:32:08;;;;;;;5.90;4.95;;;;;;;39.94;31.75;91154.53;5053378;28;20025;-64
2022/08/29 07:34:33;;;;;;;9.77;4.97;;;;;;;41.91;29.44;91145.91;5053305;28;20043;-64
2022/08/29 07:36:59;;;;;;;8.07;4.85;;;;;;;37.72;33.46;91139.13;5053382;28;20040;-64
2022/08/29 07:39:24;;;;;;;6.88;5.25;;;;;;;37.21;33.80;91144.78;5053123;28;20055;-64
2022/08/29 07:41:50;;;;;;;10.80;5.30;;;;;;;37.65;33.71;91145.03;5053177;28;20048;-64
2022/08/29 07:44:17;;;;;;;10.18;5.50;;;;;;;40.60;31.23;91142.63;5053203;28;20424;-65
2022/08/29 07:46:44;;;;;;;6.32;4.75;;;;;;;40.01;31.26;91151.31;5053173;28;20087;-65
2022/08/29 07:49:11;;;;;;;7.85;5.45;;;;;;;41.25;29.85;91145.75;5053445;28;20063;-65
2022/08/29 07:51:37;;;;;;;7.97;4.80;;;;;;;42.75;28.13;91144.91;5053335;28;20067;-65
2022/08/29 07:54:05;;;;;;;8.25;5.30;;;;;;;42.41;28.69;91144.06;5052952;28;20045;-64
2022/08/29 07:56:36;;;;;;;6.57;5.13;;;;;;;41.44;28.77;91139.78;5053009;28;20072;-64
2022/08/29 07:59:02;;;;;;;8.27;4.50;;;;;;;41.02;29.69;91140.44;5052869;28;20116;-65
2022/08/29 08:01:28;;;;;;;7.60;4.75;;;;;;;43.20;27.15;91138.59;5052811;28;20280;-64
2022/08/29 08:03:55;;;;;;;19.70;14.38;;;;;;;44.61;26.68;91140.56;5055584;28;20040;-66
2022/08/29 08:06:22;;;;;;;11.40;8.88;;;;;;;42.11;28.09;91132.53;5052653;28;20594;-66
2022/08/29 08:08:48;;;;;;;8.68;5.80;;;;;;;42.66;28.16;91138.81;5052758;28;20068;-66
2022/08/29 08:11:14;;;;;;;8.63;5.45;;;;;;;41.20;29.84;91135.28;5052788;28;20107;-67
2022/08/29 08:13:40;;;;;;;6.53;5.53;;;;;;;38.62;31.16;91134.03;5052620;28;20502;-67
2022/08/29 08:16:10;;;;;;;5.63;4.95;;;;;;;37.69;33.97;91121.38;5052602;28;20625;-66
2022/08/29 08:18:37;;;;;;;9.50;6.10;;;;;;;39.42;32.13;91129.22;5052569;28;20045;-67
2022/08/29 08:21:03;;;;;;;6.03;4.80;;;;;;;38.64;31.53;91128.78;5052588;28;20040;-66
2022/08/29 08:23:28;;;;;;;9.95;5.97;;;;;;;35.64;35.32;91124.13;5052416;28;20565;-67
2022/08/29 08:25:54;;;;;;;8.73;5.95;;;;;;;35.38;36.52;91118.88;5052287;28;20041;-67
2022/08/29 08:28:19;;;;;;;7.97;5.40;;;;;;;37.25;35.04;91123.19;5052366;28;20116;-67
2022/08/29 08:30:45;;;;;;;9.52;5.65;;;;;;;40.25;31.57;91126.00;5052540;28;20410;-66
2022/08/29 08:33:10;;;;;;;8.55;5.40;;;;;;;41.44;29.92;91125.81;5052299;28;20095;-66
2022/08/29 08:35:37;;;;;;;8.90;5.20;;;;;;;42.62;28.92;91119.50;5052225;28;20041;-66
2022/08/29 08:38:04;;;;;;;6.03;4.82;;;;;;;41.87;29.27;91118.97;5052234;28;20082;-67
2022/08/29 08:40:31;;;;;;;5.78;5.07;;;;;;;40.07;30.71;91121.50;5052027;28;20051;-66
2022/08/29 08:43:00;;;;;;;6.00;4.82;;;;;;;40.40;30.89;91114.78;5051943;28;20086;-66
2022/08/29 08:45:41;;;;;;;5.30;4.68;;;;;;;40.72;30.12;91118.38;5052207;28;20049;-66
2022/08/29 08:48:10;;;;;;;5.70;4.90;;;;;;;43.86;27.48;91117.38;5051924;28;20037;-67
2022/08/29 08:50:50;;;;;;;6.15;4.10;;;;;;;43.84;26.33;91122.75;5051920;28;20044;-67
2022/08/29 08:53:27;;;;;;;22.30;14.57;;;;;;;40.30;30.05;91121.75;5052067;28;20163;-66
2022/08/29 08:55:56;;;;;;;6.25;5.05;;;;;;;36.55;33.62;91112.97;5051750;28;20040;-66
2022/08/29 08:58:46;;;;;;;6.53;4.47;;;;;;;35.70;35.69;91109.22;5052054;28;20037;-66
2022/08/29 09:01:21;;;;;;;6.05;4.60;;;;;;;37.64;33.95;91102.59;5051679;28;20422;-66
2022/08/29 09:04:19;;;;;;;5.35;4.47;;;;;;;41.54;30.02;91115.97;5051558;28;20127;-67
2022/08/29 09:07:11;;;;;;;5.97;4.95;;;;;;;40.90;29.74;91106.91;5051574;28;20045;-66
2022/08/29 09:09:43;;;;;;;9.85;4.53;;;;;;;41.88;28.73;91108.53;5051243;28;20102;-67
2022/08/29 09:12:18;;;;;;;5.93;4.45;;;;;;;39.22;30.78;91116.06;5051640;28;20029;-67
2022/08/29 09:15:11;;;;;;;6.32;5.13;;;;;;;36.57;34.18;91110.50;5051499;28;20545;-66
2022/08/29 09:17:46;;;;;;;6.88;4.88;;;;;;;35.96;35.19;91104.13;5051904;28;20072;-67
2022/08/29 09:20:27;;;;;;;6.22;4.82;;;;;;;36.54;34.47;91105.91;5052145;28;20067;-67
2022/08/29 09:23:17;;;;;;;14.93;8.70;;;;;;;36.87;33.61;91102.41;5051451;28;20056;-66
2022/08/29 09:25:43;;;;;;;4.85;4.18;;;;;;;39.03;31.49;91111.19;5051288;28;20556;-66
2022/08/29 09:28:09;;;;;;;6.18;4.95;;;;;;;37.83;31.79;91113.59;5051278;28;20041;-66
2022/08/29 09:30:38;;;;;;;5.32;4.80;;;;;;;37.05;33.64;91109.88;5051175;28;20036;-66
2022/08/29 09:33:06;;;;;;;5.18;4.68;;;;;;;39.15;30.89;91115.72;5051548;28;20033;-66
2022/08/29 09:35:35;;;;;;;8.07;5.20;;;;;;;42.47;28.46;91114.09;5051105;28;20060;-66
2022/08/29 09:38:16;;;;;;;6.25;4.45;;;;;;;42.80;26.74;91115.44;5051207;28;20075;-66
2022/08/29 09:40:54;;;;;;;5.80;4.45;;;;;;;42.65;27.12;91117.72;5051195;28;20044;-66
2022/08/29 09:43:25;;;;;;;4.90;4.50;;;;;;;41.42;28.69;91106.00;5051305;28;20032;-66
2022/08/29 09:46:11;;;;;;;5.93;4.70;;;;;;;39.45;30.33;91099.66;5050984;28;20840;-66
2022/08/29 09:48:44;;;;;;;4.22;3.80;;;;;;;36.76;33.73;91113.22;5051078;28;20461;-66
2022/08/29 09:51:09;;;;;;;6.65;3.88;;;;;;;32.91;38.69;91114.47;5051070;28;20611;-65
2022/08/29 09:53:35;;;;;;;5.10;4.35;;;;;;;31.94;40.42;91104.78;5050977;28;20119;-66
2022/08/29 09:56:06;;;;;;;5.07;3.50;;;;;;;30.66;42.47;91111.63;5051018;28;20041;-66
2022/08/29 09:58:38;;;;;;;5.60;3.53;;;;;;;29.45;45.19;91094.94;5051002;28;20106;-66
2022/08/29 10:01:33;;;;;;;4.57;3.78;;;;;;;28.25;47.82;91103.22;5051036;28;20041;-66
2022/08/29 10:04:02;;;;;;;9.25;4.68;;;;;;;27.22;50.03;91090.84;5048267;28;20049;-66
2022/08/29 10:06:31;;;;;;;6.18;3.75;;;;;;;27.20;50.96;91098.66;5050818;28;20049;-66
2022/08/29 10:09:12;;;;;;;4.13;3.60;;;;;;;26.88;51.75;91094.28;5050871;28;20098;-66
2022/08/29 10:11:48;;;;;;;6.88;4.80;;;;;;;26.91;51.31;91093.47;5051136;28;20155;-66
2022/08/29 10:14:41;;;;;;;4.50;3.65;;;;;;;26.22;52.69;91102.63;5050694;28;20080;-66
2022/08/29 10:20:28;;;;;;;5.90;3.55;;;;;;;25.79;52.32;91094.69;5050789;28;20044;-65
2022/08/29 10:23:08;;;;;;;6.30;4.07;;;;;;;25.76;52.15;91095.50;5052564;28;20079;-65
2022/08/29 10:25:37;;;;;;;4.05;3.28;;;;;;;25.72;51.58;91094.75;5054682;28;20136;-67
2022/08/29 10:28:28;;;;;;;5.00;3.90;;;;;;;25.78;51.45;91093.16;5054724;28;20069;-67
2022/08/29 10:31:08;;;;;;;7.28;3.65;;;;;;;26.15;50.47;91083.56;5036777;28;20574;-66
2022/08/29 10:33:46;;;;;;;6.97;3.58;;;;;;;27.06;49.21;91088.66;5054471;28;20056;-66
2022/08/29 10:36:19;;;;;;;5.45;3.92;;;;;;;27.67;48.54;91092.28;5054553;28;20065;-67
2022/08/29 10:38:45;;;;;;;5.32;3.40;;;;;;;27.51;47.61;91100.25;5054582;28;20417;-67
2022/08/29 10:41:39;;;;;;;4.57;3.05;;;;;;;27.27;47.42;91096.63;5054529;28;20494;-66
2022/08/29 10:44:19;;;;;;;5.25;3.47;;;;;;;26.96;48.14;91093.00;5052940;28;20502;-67
2022/08/29 10:47:13;;;;;;;6.35;3.47;;;;;;;27.05;47.63;91090.63;5054332;28;20453;-66
2022/08/29 10:50:03;;;;;;;4.85;4.15;;;;;;;27.25;47.84;91090.03;5050948;28;20055;-67
2022/08/29 10:52:39;;;;;;;4.45;3.40;;;;;;;27.42;46.99;91087.06;5053974;28;20095;-67
2022/08/29 10:55:43;;;;;;;4.75;3.72;;;;;;;27.45;47.50;91089.00;5053575;28;20037;-66
2022/08/29 10:58:16;;;;;;;;;;;;;;;27.75;46.78;91082.00;5012485;28;20048;-67
2022/08/29 11:00:47;;;;;;;6.43;3.80;;;;;;;28.22;46.26;91080.16;5047449;28;19917;-66
2022/08/29 11:03:19;;;;;;;5.20;4.03;;;;;;;28.54;45.71;91073.44;5054012;28;20043;-67
2022/08/29 11:05:56;;;;;;;3.95;3.38;;;;;;;28.20;45.92;91068.88;5053663;28;20557;-67
2022/08/29 11:08:44;;;;;;;4.60;3.28;;;;;;;28.27;46.40;91074.28;5053326;28;20037;-65
2022/08/29 11:11:15;;;;;;;5.80;4.70;;;;;;;28.05;45.52;91073.00;5053508;28;20461;-65
2022/08/29 11:13:48;;;;;;;6.75;4.07;;;;;;;28.17;45.83;91068.94;5053561;28;20037;-65
2022/08/29 11:16:52;;;;;;;4.55;3.90;;;;;;;28.66;45.99;91066.63;5053552;28;20041;-65
2022/08/29 11:19:29;;;;;;;5.97;4.35;;;;;;;28.76;46.23;91057.47;5052881;28;20506;-66
2022/08/29 11:22:08;;;;;;;5.43;4.78;;;;;;;28.57;46.98;91064.44;5053295;28;20044;-66
2022/08/29 11:24:35;;;;;;;6.00;4.25;;;;;;;28.49;46.81;91063.00;5052852;28;20454;-66
2022/08/29 11:27:10;;;;;;;4.88;4.03;;;;;;;28.22;46.88;91071.19;5053443;28;20406;-66
2022/08/29 11:29:57;;;;;;;6.13;3.88;;;;;;;27.61;49.29;91074.72;5053410;28;20045;-66
2022/08/29 11:32:46;;;;;;;4.82;3.70;;;;;;;27.39;49.56;91079.69;5053266;28;20041;-66
2022/08/29 11:35:36;;;;;;;6.28;3.85;;;;;;;26.64;52.41;91078.91;5053055;28;20037;-66
2022/08/29 11:38:28;;;;;;;8.00;4.00;;;;;;;26.27;54.82;91078.41;5053237;28;20040;-65
2022/08/29 11:41:06;;;;;;;5.15;4.03;;;;;;;26.08;54.51;91083.63;5053301;28;20494;-65
2022/08/29 11:43:40;;;;;;;5.57;3.90;;;;;;;25.62;56.54;91085.41;5053136;28;20041;-66
2022/08/29 11:46:10;;;;;;;6.60;5.03;;;;;;;25.30;59.72;91095.69;5053289;28;20041;-65